Kaldármelar Airport

Jump to: basic info | weather | comments

Related pages: nearby airports | nearby navaids | notams | map

Basic information (top)

Codes: BIKA
Location: lon 64.778900, lat -22.256901, elev 160 ft / 49 m msl
Status: small_airport

Weather (top)

Current conditions for Reykjavik Airport 40nm (74km) SSE (rec'd 2015/03/27 15:00Z):

BIRK 271500Z 19020KT 9999 -SHSN FEW017 SCT025CB BKN040 M01/M02 Q0986 R19/210161

Airport forecast for Reykjavik Airport 40nm (74km) SSE (rec'd 2015/03/27 15:58Z):

TAF BIRK 271350Z 2715/2815 20020G30KT 9999 FEW010CB SCT020 BKN040 TX02/2716Z TNM01/2803Z 
     FM271600 23028G40KT 
      TEMPO 2715/2809 1000 SHSN BKN007CB 
      BECMG 2722/2801 22013KT

Latest comments (top)

No comments yet for Kaldármelar Airport

More... (top)

See also NOTAMs and nearby airports and navaids, or visit the Kaldármelar Airport page at the main OurAirports website..